createdAt,value
2018-06-22T00:02:24.749Z,12.35
2018-06-22T00:04:53.413Z,12.27
2018-06-22T00:07:22.193Z,12.31
2018-06-22T00:09:50.923Z,12.29
2018-06-22T00:12:19.729Z,12.29
2018-06-22T00:14:48.313Z,12.03
2018-06-22T00:17:17.001Z,12.10
2018-06-22T00:19:45.787Z,12.04
2018-06-22T00:22:14.401Z,12.01
2018-06-22T00:24:42.980Z,11.87
2018-06-22T00:27:11.655Z,12.06
2018-06-22T00:29:40.293Z,11.96
2018-06-22T00:32:08.893Z,11.87
2018-06-22T00:34:37.414Z,11.94
2018-06-22T00:37:06.277Z,11.88
2018-06-22T00:39:34.859Z,11.78
2018-06-22T00:42:03.461Z,11.89
2018-06-22T00:44:31.996Z,11.78
2018-06-22T00:47:00.693Z,11.75
2018-06-22T00:49:29.196Z,11.81
2018-06-22T00:51:57.720Z,11.72
2018-06-22T00:54:26.316Z,11.82
2018-06-22T00:56:54.841Z,11.91
2018-06-22T00:59:23.408Z,11.87
2018-06-22T01:01:51.908Z,11.91
2018-06-22T01:04:20.508Z,11.78
2018-06-22T01:06:49.049Z,11.83
2018-06-22T01:09:17.604Z,11.87
2018-06-22T01:11:46.225Z,11.91
2018-06-22T01:14:14.780Z,11.95
2018-06-22T01:16:43.404Z,11.85
2018-06-22T01:19:12.024Z,11.92
2018-06-22T01:21:40.575Z,11.81
2018-06-22T01:24:09.206Z,11.87
2018-06-22T01:26:37.755Z,11.92
2018-06-22T01:29:11.517Z,11.91
2018-06-22T01:31:40.059Z,11.98
2018-06-22T01:34:08.836Z,12.12
2018-06-22T01:36:37.381Z,12.07
2018-06-22T01:39:07.759Z,11.96
2018-06-22T01:41:36.354Z,11.86
2018-06-22T01:44:05.049Z,11.85
2018-06-22T01:46:33.924Z,11.72
2018-06-22T01:49:02.565Z,11.81
2018-06-22T01:51:31.119Z,11.81
2018-06-22T01:53:59.644Z,11.85
2018-06-22T01:56:28.227Z,11.72
2018-06-22T01:58:56.812Z,11.51
2018-06-22T02:01:25.393Z,11.61
2018-06-22T02:03:53.972Z,11.58
2018-06-22T02:06:22.647Z,11.56
2018-06-22T02:08:51.252Z,11.61
2018-06-22T02:11:19.890Z,11.54
2018-06-22T02:13:48.460Z,11.60
2018-06-22T02:16:17.181Z,11.62
2018-06-22T02:18:46.036Z,11.53
2018-06-22T02:21:14.614Z,11.65
2018-06-22T02:23:43.228Z,11.54
2018-06-22T02:26:11.828Z,11.63
2018-06-22T02:28:40.464Z,11.63
2018-06-22T02:31:09.034Z,11.55
2018-06-22T02:33:37.608Z,11.57
2018-06-22T02:36:06.233Z,11.46
2018-06-22T02:38:34.788Z,11.58
2018-06-22T02:41:06.067Z,11.60
2018-06-22T02:43:35.520Z,11.60
2018-06-22T02:46:04.769Z,11.67
2018-06-22T02:48:33.426Z,11.61
2018-06-22T02:51:02.046Z,11.65
2018-06-22T02:53:30.683Z,11.57
2018-06-22T02:55:59.256Z,11.57
2018-06-22T02:58:27.936Z,11.63
2018-06-22T03:00:56.544Z,11.63
2018-06-22T03:03:25.072Z,11.58
2018-06-22T03:05:53.659Z,11.63
2018-06-22T03:08:22.331Z,11.54
2018-06-22T03:10:50.884Z,11.48
2018-06-22T03:13:19.517Z,11.36
2018-06-22T03:15:48.134Z,11.43
2018-06-22T03:18:16.802Z,11.45
2018-06-22T03:20:45.393Z,11.44
2018-06-22T03:23:13.997Z,11.40
2018-06-22T03:25:42.706Z,11.41
2018-06-22T03:28:11.357Z,11.29
2018-06-22T03:30:39.991Z,11.34
2018-06-22T03:33:08.608Z,11.38
2018-06-22T03:35:37.148Z,11.32
2018-06-22T03:38:06.230Z,11.41
2018-06-22T03:40:34.792Z,11.44
2018-06-22T03:43:03.437Z,11.51
2018-06-22T03:45:31.992Z,11.55
2018-06-22T03:48:00.657Z,11.60
2018-06-22T03:50:29.213Z,11.60
2018-06-22T03:52:57.797Z,11.66
2018-06-22T03:55:26.413Z,11.70
2018-06-22T03:57:55.063Z,11.76
2018-06-22T04:00:23.644Z,11.63
2018-06-22T04:02:52.324Z,11.57
2018-06-22T04:05:21.028Z,11.65
2018-06-22T04:07:49.600Z,11.65
2018-06-22T04:10:18.339Z,11.57
2018-06-22T04:12:47.052Z,11.45
2018-06-22T04:15:15.876Z,11.48
2018-06-22T04:17:49.004Z,11.41
2018-06-22T04:20:17.889Z,11.51
2018-06-22T04:22:46.486Z,11.40
2018-06-22T04:25:15.064Z,11.42
2018-06-22T04:27:43.595Z,11.32
2018-06-22T04:30:12.176Z,11.29
2018-06-22T04:32:40.813Z,11.27
2018-06-22T04:35:09.748Z,11.25
2018-06-22T04:37:38.755Z,11.35
2018-06-22T04:40:07.334Z,11.31
2018-06-22T04:42:36.198Z,11.37
2018-06-22T04:45:05.160Z,11.39
2018-06-22T04:47:33.821Z,11.43
2018-06-22T04:50:02.908Z,11.38
2018-06-22T04:52:31.689Z,11.45
2018-06-22T04:55:00.371Z,11.50
2018-06-22T04:57:28.889Z,11.60
2018-06-22T04:59:57.427Z,11.62
2018-06-22T05:02:26.073Z,11.54
2018-06-22T05:04:54.676Z,11.60
2018-06-22T05:07:23.261Z,11.62
2018-06-22T05:09:51.868Z,11.73
2018-06-22T05:12:20.542Z,11.77
2018-06-22T05:14:49.185Z,11.76
2018-06-22T05:17:17.745Z,11.86
2018-06-22T05:19:46.401Z,11.89
2018-06-22T05:22:14.986Z,11.91
2018-06-22T05:24:43.545Z,11.82
2018-06-22T05:27:12.112Z,11.92
2018-06-22T05:29:40.780Z,11.97
2018-06-22T05:32:09.382Z,12.07
2018-06-22T05:34:37.930Z,12.12
2018-06-22T05:37:06.559Z,12.25
2018-06-22T05:39:35.244Z,12.20
2018-06-22T05:42:03.981Z,12.13
2018-06-22T05:44:32.758Z,12.23
2018-06-22T05:47:01.433Z,12.24
2018-06-22T05:49:30.161Z,12.23
2018-06-22T05:51:58.728Z,12.24
2018-06-22T05:54:27.537Z,12.32
2018-06-22T05:56:56.183Z,12.27
2018-06-22T05:59:24.872Z,12.41
2018-06-22T06:01:53.675Z,12.34
2018-06-22T06:04:22.397Z,12.40
2018-06-22T06:06:51.156Z,12.41
2018-06-22T06:09:19.805Z,12.34
2018-06-22T06:11:48.465Z,12.44
2018-06-22T06:14:17.152Z,12.45
2018-06-22T06:16:45.828Z,12.49
2018-06-22T06:19:14.573Z,12.45
2018-06-22T06:21:43.245Z,12.46
2018-06-22T06:24:11.940Z,12.44
2018-06-22T06:26:40.569Z,12.49
2018-06-22T06:29:09.188Z,12.48
2018-06-22T06:31:37.698Z,12.49
2018-06-22T06:34:06.368Z,12.65
2018-06-22T06:36:34.925Z,12.87
2018-06-22T06:39:04.367Z,13.22
2018-06-22T06:41:34.130Z,13.57
2018-06-22T06:44:04.073Z,13.51
2018-06-22T06:46:33.109Z,13.47
2018-06-22T06:49:01.792Z,13.50
2018-06-22T06:51:30.467Z,13.34
2018-06-22T06:53:59.256Z,13.37
2018-06-22T06:56:28.032Z,13.44
2018-06-22T06:58:56.690Z,13.26
2018-06-22T07:01:25.336Z,13.21
2018-06-22T07:03:53.953Z,13.14
2018-06-22T07:06:22.621Z,13.19
2018-06-22T07:08:51.413Z,13.11
2018-06-22T07:11:20.296Z,13.22
2018-06-22T07:13:48.984Z,13.34
2018-06-22T07:16:17.694Z,13.31
2018-06-22T07:18:46.413Z,13.34
2018-06-22T07:21:15.176Z,13.32
2018-06-22T07:23:43.744Z,13.36
2018-06-22T07:26:12.695Z,13.36
2018-06-22T07:28:41.475Z,13.35
2018-06-22T07:31:10.180Z,13.29
2018-06-22T07:33:38.876Z,13.19
2018-06-22T07:36:07.590Z,13.29
2018-06-22T07:38:36.209Z,13.37
2018-06-22T07:41:05.105Z,13.49
2018-06-22T07:43:33.707Z,13.52
2018-06-22T07:46:02.557Z,13.66
2018-06-22T07:48:31.368Z,13.67
2018-06-22T07:51:00.069Z,13.52
2018-06-22T07:53:28.705Z,13.62
2018-06-22T07:55:57.705Z,13.69
2018-06-22T07:58:26.324Z,13.77
2018-06-22T08:00:54.922Z,13.72
2018-06-22T08:03:23.563Z,13.65
2018-06-22T08:05:52.261Z,13.64
2018-06-22T08:08:20.849Z,13.70
2018-06-22T08:10:50.031Z,13.70
2018-06-22T08:13:18.760Z,13.66
2018-06-22T08:15:48.069Z,13.64
2018-06-22T08:18:17.013Z,13.78
2018-06-22T08:23:28.253Z,13.88
2018-06-22T08:25:59.040Z,13.84
2018-06-22T08:28:27.752Z,13.93
2018-06-22T08:30:56.409Z,13.90
2018-06-22T08:33:25.105Z,13.83
2018-06-22T08:35:53.829Z,13.88
2018-06-22T08:38:22.563Z,13.83
2018-06-22T08:40:51.309Z,13.86
2018-06-22T08:43:20.187Z,13.85
2018-06-22T08:45:48.781Z,13.78
2018-06-22T08:48:17.593Z,13.70
2018-06-22T08:50:46.569Z,13.73
2018-06-22T08:53:15.231Z,13.74
2018-06-22T08:55:43.864Z,13.69
2018-06-22T08:58:15.683Z,13.75
2018-06-22T09:00:44.524Z,13.73
2018-06-22T09:03:13.210Z,13.78
2018-06-22T09:05:41.977Z,13.90
2018-06-22T09:08:18.344Z,14.04
2018-06-22T09:10:46.989Z,13.97
2018-06-22T09:13:16.184Z,13.91
2018-06-22T09:15:44.827Z,13.92
2018-06-22T09:18:13.734Z,13.87
2018-06-22T09:20:45.368Z,13.95
2018-06-22T09:23:17.573Z,13.92
2018-06-22T09:25:46.563Z,13.87
2018-06-22T09:28:15.416Z,13.92
2018-06-22T09:30:47.313Z,13.81
2018-06-22T09:33:15.924Z,13.74
2018-06-22T09:35:46.366Z,13.75
2018-06-22T09:38:15.037Z,13.78
2018-06-22T09:40:43.632Z,13.72
2018-06-22T09:43:12.274Z,13.71
2018-06-22T09:45:40.924Z,13.85
2018-06-22T09:48:09.544Z,13.85
2018-06-22T09:50:38.385Z,13.78
2018-06-22T09:53:07.776Z,13.98
2018-06-22T09:55:36.885Z,13.94
2018-06-22T09:58:09.610Z,13.96
2018-06-22T10:00:38.566Z,13.96
2018-06-22T10:03:08.386Z,14.02
2018-06-22T10:05:36.972Z,13.89
2018-06-22T10:08:05.931Z,13.90
2018-06-22T10:10:34.726Z,13.93
2018-06-22T10:13:06.168Z,13.97
2018-06-22T10:15:36.082Z,13.99
2018-06-22T10:18:04.882Z,14.12
2018-06-22T10:20:36.232Z,14.23
2018-06-22T10:23:10.446Z,14.18
2018-06-22T10:25:40.043Z,14.31
2018-06-22T10:28:09.969Z,14.43
2018-06-22T10:30:39.009Z,14.31
2018-06-22T10:33:10.476Z,14.18
2018-06-22T10:35:39.144Z,14.09
2018-06-22T10:38:08.038Z,14.24
2018-06-22T10:40:37.253Z,14.42
2018-06-22T10:43:06.232Z,14.65
2018-06-22T10:45:35.369Z,14.93
2018-06-22T10:48:04.221Z,15.21
2018-06-22T10:50:33.607Z,15.32
2018-06-22T10:53:02.813Z,15.21
2018-06-22T10:55:31.912Z,15.30
2018-06-22T10:58:00.777Z,15.32
2018-06-22T11:00:29.491Z,15.46
2018-06-22T11:02:58.249Z,15.36
2018-06-22T11:05:27.320Z,15.22
2018-06-22T11:08:01.745Z,15.19
2018-06-22T11:10:32.936Z,15.15
2018-06-22T11:13:01.889Z,15.13
2018-06-22T11:15:31.260Z,15.20
2018-06-22T11:18:00.049Z,15.13
2018-06-22T11:20:28.943Z,15.12
2018-06-22T11:22:57.820Z,15.18
2018-06-22T11:25:26.643Z,15.44
2018-06-22T11:27:55.536Z,15.61
2018-06-22T11:30:24.293Z,15.89
2018-06-22T11:32:52.957Z,16.19
2018-06-22T11:35:21.762Z,16.18
2018-06-22T11:37:50.390Z,16.10
2018-06-22T11:40:19.145Z,15.96
2018-06-22T11:42:47.925Z,15.64
2018-06-22T11:45:16.807Z,15.26
2018-06-22T11:47:46.688Z,15.06
2018-06-22T11:50:16.024Z,14.63
2018-06-22T11:52:45.295Z,14.23
2018-06-22T11:55:14.254Z,14.18
2018-06-22T11:57:43.174Z,14.23
2018-06-22T12:00:11.934Z,14.44
2018-06-22T12:02:41.879Z,14.67
2018-06-22T12:05:11.595Z,15.18
2018-06-22T12:07:40.664Z,15.62
2018-06-22T12:10:11.420Z,15.90
2018-06-22T12:12:40.089Z,15.89
2018-06-22T12:15:08.758Z,15.84
2018-06-22T12:17:38.082Z,15.81
2018-06-22T12:20:06.903Z,15.76
2018-06-22T12:22:35.674Z,15.81
2018-06-22T12:25:05.558Z,15.92
2018-06-22T12:27:34.307Z,15.80
2018-06-22T12:30:03.369Z,15.69
2018-06-22T12:32:32.148Z,15.62
2018-06-22T12:35:02.796Z,15.70
2018-06-22T12:37:31.949Z,15.65
2018-06-22T12:40:00.627Z,15.50
2018-06-22T12:42:31.157Z,15.45
2018-06-22T12:44:59.911Z,15.32
2018-06-22T12:47:28.688Z,15.36
2018-06-22T12:50:00.710Z,15.20
2018-06-22T12:52:29.549Z,15.15
2018-06-22T12:54:58.335Z,15.25
2018-06-22T12:57:27.816Z,15.19
2018-06-22T12:59:56.680Z,15.26
2018-06-22T13:02:32.122Z,14.84
2018-06-22T13:05:01.778Z,14.56
2018-06-22T13:07:31.005Z,14.53
2018-06-22T13:10:00.110Z,14.47
2018-06-22T13:12:28.881Z,14.54
2018-06-22T13:14:57.640Z,14.68
2018-06-22T13:17:26.296Z,14.80
2018-06-22T13:19:55.039Z,14.94
2018-06-22T13:22:24.352Z,15.32
2018-06-22T13:24:53.300Z,15.83
2018-06-22T13:27:22.697Z,16.47
2018-06-22T13:29:51.566Z,16.75
2018-06-22T13:32:20.379Z,17.14
2018-06-22T13:35:10.775Z,17.73
2018-06-22T13:37:39.517Z,18.18
2018-06-22T13:40:08.597Z,18.16
2018-06-22T13:42:45.921Z,18.06
2018-06-22T13:45:15.039Z,18.10
2018-06-22T13:47:48.865Z,18.24
2018-06-22T13:50:17.745Z,18.57
2018-06-22T13:52:50.904Z,18.20
2018-06-22T13:55:20.500Z,17.71
2018-06-22T13:57:49.640Z,17.97
2018-06-22T14:00:18.515Z,18.09
2018-06-22T14:02:47.168Z,17.62
2018-06-22T14:05:21.347Z,17.17
2018-06-22T14:07:51.130Z,16.85
2018-06-22T14:10:19.871Z,16.89
2018-06-22T14:12:49.249Z,17.30
2018-06-22T14:15:18.244Z,17.91
2018-06-22T14:17:46.960Z,18.13
2018-06-22T14:20:16.256Z,18.20
2018-06-22T14:22:44.907Z,18.94
2018-06-22T14:25:13.761Z,18.85
2018-06-22T14:27:42.598Z,18.97
2018-06-22T14:30:11.351Z,19.38
2018-06-22T14:32:40.045Z,19.26
2018-06-22T14:35:08.959Z,19.23
2018-06-22T14:37:37.946Z,19.42
2018-06-22T14:40:07.322Z,18.47
2018-06-22T14:42:36.094Z,18.84
2018-06-22T14:45:04.986Z,19.30
2018-06-22T14:47:37.972Z,19.14
2018-06-22T14:50:10.868Z,19.59
2018-06-22T14:52:39.638Z,19.60
2018-06-22T14:55:14.595Z,19.50
2018-06-22T14:57:48.341Z,19.67
2018-06-22T15:00:22.166Z,19.73
2018-06-22T15:02:56.038Z,19.51
2018-06-22T15:05:30.699Z,20.21
2018-06-22T15:08:01.728Z,20.00
2018-06-22T15:10:30.505Z,19.96
2018-06-22T15:13:00.948Z,19.87
2018-06-22T15:15:29.840Z,20.08
2018-06-22T15:17:58.743Z,19.74
2018-06-22T15:20:29.313Z,20.03
2018-06-22T15:22:57.962Z,20.11
2018-06-22T15:25:26.603Z,19.92
2018-06-22T15:27:55.336Z,20.05
2018-06-22T15:30:24.074Z,20.01
2018-06-22T15:32:52.997Z,20.56
2018-06-22T15:35:26.869Z,20.77
2018-06-22T15:38:00.961Z,20.79
2018-06-22T15:40:35.038Z,20.78
2018-06-22T15:43:09.156Z,19.92
2018-06-22T15:45:43.095Z,19.49
2018-06-22T15:48:17.027Z,19.64
2018-06-22T15:50:51.073Z,19.04
2018-06-22T15:53:24.852Z,18.74
2018-06-22T15:55:57.560Z,18.24
2018-06-22T15:58:26.364Z,18.51
2018-06-22T16:00:55.478Z,19.06
2018-06-22T16:03:29.313Z,18.78
2018-06-22T16:05:58.020Z,18.72
2018-06-22T16:08:31.176Z,19.16
2018-06-22T16:10:59.945Z,19.28
2018-06-22T16:13:28.626Z,18.87
2018-06-22T16:16:02.819Z,18.55
2018-06-22T16:18:37.045Z,18.01
2018-06-22T16:21:10.940Z,18.24
2018-06-22T16:23:44.780Z,18.12
2018-06-22T16:27:19.778Z,18.05
2018-06-22T16:29:49.368Z,17.65
2018-06-22T16:32:19.249Z,17.51
2018-06-22T16:34:47.948Z,17.49
2018-06-22T16:37:19.088Z,17.35
2018-06-22T16:39:48.302Z,17.39
2018-06-22T16:42:17.950Z,17.24
2018-06-22T16:44:47.522Z,17.75
2018-06-22T16:47:16.658Z,17.89
2018-06-22T16:49:45.457Z,18.31
2018-06-22T16:52:14.159Z,18.39
2018-06-22T16:54:42.901Z,18.63
2018-06-22T16:57:11.618Z,18.68
2018-06-22T16:59:40.425Z,18.17
2018-06-22T17:02:09.197Z,18.06
2018-06-22T17:04:37.956Z,17.75
2018-06-22T17:07:12.979Z,17.50
2018-06-22T17:09:47.088Z,17.85
2018-06-22T17:12:21.746Z,18.52
2018-06-22T17:14:55.631Z,19.09
2018-06-22T17:17:30.880Z,18.99
2018-06-22T17:19:59.855Z,18.91
2018-06-22T17:22:29.083Z,18.70
2018-06-22T17:24:59.548Z,18.64
2018-06-22T17:27:28.383Z,18.54
2018-06-22T17:29:57.212Z,18.46
2018-06-22T17:32:26.143Z,18.56
2018-06-22T17:34:54.997Z,18.86
2018-06-22T17:37:23.715Z,19.15
2018-06-22T17:39:52.340Z,18.82
2018-06-22T17:42:21.025Z,18.81
2018-06-22T17:44:49.749Z,18.59
2018-06-22T17:47:18.713Z,18.95
2018-06-22T17:49:47.405Z,19.06
2018-06-22T17:52:16.174Z,18.59
2018-06-22T17:54:44.875Z,18.67
2018-06-22T17:57:14.165Z,18.44
2018-06-22T17:59:48.050Z,18.24
2018-06-22T18:02:22.560Z,18.35
2018-06-22T18:04:56.419Z,18.57
2018-06-22T18:07:30.329Z,18.24
2018-06-22T18:10:11.525Z,18.21
2018-06-22T18:12:47.135Z,18.17
2018-06-22T18:15:16.492Z,18.40
2018-06-22T18:17:46.383Z,18.07
2018-06-22T18:20:15.312Z,18.16
2018-06-22T18:22:44.421Z,17.64
2018-06-22T18:25:15.436Z,17.46
2018-06-22T18:27:45.520Z,17.21
2018-06-22T18:30:15.506Z,17.02
2018-06-22T18:32:44.369Z,17.12
2018-06-22T18:35:14.466Z,16.96
2018-06-22T18:37:43.280Z,16.88
2018-06-22T18:40:12.492Z,16.75
2018-06-22T18:42:44.898Z,16.69
2018-06-22T18:45:19.290Z,16.62
2018-06-22T18:47:48.746Z,16.55
2018-06-22T18:50:18.616Z,16.35
2018-06-22T18:52:53.192Z,16.34
2018-06-22T18:55:27.227Z,16.14
2018-06-22T18:58:01.145Z,15.99
2018-06-22T19:00:35.052Z,15.98
2018-06-22T19:03:09.001Z,15.98
2018-06-22T19:05:38.121Z,15.95
2018-06-22T19:08:08.720Z,15.97
2018-06-22T19:10:40.014Z,15.91
2018-06-22T19:13:08.803Z,16.04
2018-06-22T19:15:37.618Z,16.02
2018-06-22T19:18:18.057Z,16.01
2018-06-22T19:20:47.502Z,15.98
2018-06-22T19:23:16.276Z,15.96
2018-06-22T19:25:45.358Z,15.86
2018-06-22T19:28:16.096Z,15.74
2018-06-22T19:30:48.875Z,15.86
2018-06-22T19:33:18.683Z,15.77
2018-06-22T19:35:50.245Z,15.73
2018-06-22T19:38:19.084Z,15.64
2018-06-22T19:40:48.592Z,15.69
2018-06-22T19:43:23.289Z,15.55
2018-06-22T19:45:57.033Z,15.48
2018-06-22T19:48:29.854Z,15.61
2018-06-22T19:51:03.621Z,15.69
2018-06-22T19:53:37.375Z,15.55
2018-06-22T19:56:06.381Z,15.51
2018-06-22T19:58:35.138Z,15.58
2018-06-22T20:01:04.107Z,15.56
2018-06-22T20:03:32.897Z,15.49
2018-06-22T20:06:01.590Z,15.44
2018-06-22T20:08:30.256Z,15.40
2018-06-22T20:10:59.062Z,15.43
2018-06-22T20:13:27.932Z,15.36
2018-06-22T20:15:57.050Z,15.23
2018-06-22T20:18:25.665Z,15.11
2018-06-22T20:20:54.627Z,15.11
2018-06-22T20:23:23.422Z,15.05
2018-06-22T20:25:52.216Z,14.94
2018-06-22T20:28:20.986Z,14.93
2018-06-22T20:30:49.720Z,14.97
2018-06-22T20:33:21.324Z,15.04
2018-06-22T20:35:55.593Z,15.10
2018-06-22T20:38:29.437Z,14.91
2018-06-22T20:41:03.262Z,14.93
2018-06-22T20:43:36.928Z,14.80
2018-06-22T20:46:05.927Z,14.75
2018-06-22T20:48:39.560Z,14.67
2018-06-22T20:51:08.273Z,14.68
2018-06-22T20:53:36.948Z,14.54
2018-06-22T20:56:05.688Z,14.59
2018-06-22T20:58:34.297Z,14.59
2018-06-22T21:01:03.011Z,14.51
2018-06-22T21:03:31.668Z,14.49
2018-06-22T21:06:00.387Z,14.38
2018-06-22T21:08:28.989Z,14.38
2018-06-22T21:10:57.630Z,14.28
2018-06-22T21:13:26.421Z,14.21
2018-06-22T21:15:55.122Z,14.17
2018-06-22T21:18:23.800Z,14.14
2018-06-22T21:20:57.767Z,14.15
2018-06-22T21:23:26.629Z,14.13
2018-06-22T21:25:55.301Z,14.14
2018-06-22T21:28:29.288Z,14.04
2018-06-22T21:31:03.137Z,14.01
2018-06-22T21:33:36.906Z,14.13
2018-06-22T21:36:10.808Z,14.15
2018-06-22T21:38:44.587Z,14.09
2018-06-22T21:41:13.192Z,14.15
2018-06-22T21:43:41.951Z,14.16
2018-06-22T21:46:10.740Z,14.13
2018-06-22T21:48:39.476Z,14.06
2018-06-22T21:51:08.394Z,14.05
2018-06-22T21:53:37.152Z,14.00
2018-06-22T21:56:06.061Z,13.96
2018-06-22T21:58:34.784Z,13.89
2018-06-22T22:01:03.509Z,13.97
2018-06-22T22:03:32.216Z,13.90
2018-06-22T22:06:01.113Z,13.84
2018-06-22T22:08:29.853Z,13.84
2018-06-22T22:11:03.682Z,13.85
2018-06-22T22:13:32.597Z,13.83
2018-06-22T22:16:01.528Z,13.75
2018-06-22T22:18:30.163Z,13.66
2018-06-22T22:21:00.059Z,13.76
2018-06-22T22:23:28.689Z,13.70
2018-06-22T22:25:57.320Z,13.65
2018-06-22T22:28:26.112Z,13.47
2018-06-22T22:30:54.711Z,13.57
2018-06-22T22:33:23.450Z,13.55
2018-06-22T22:35:51.964Z,13.50
2018-06-22T22:38:20.797Z,13.49
2018-06-22T22:40:49.382Z,13.39
2018-06-22T22:43:17.920Z,13.50
2018-06-22T22:45:46.551Z,13.52
2018-06-22T22:48:15.186Z,13.49
2018-06-22T22:50:43.772Z,13.39
2018-06-22T22:53:12.426Z,13.40
2018-06-22T22:55:41.045Z,13.28
2018-06-22T22:58:09.785Z,13.23
2018-06-22T23:00:38.452Z,13.26
2018-06-22T23:03:07.172Z,13.25
2018-06-22T23:05:35.829Z,13.21
2018-06-22T23:08:04.389Z,13.07
2018-06-22T23:10:33.218Z,13.02
2018-06-22T23:13:01.830Z,13.01
2018-06-22T23:15:30.506Z,12.97
2018-06-22T23:17:59.168Z,12.99
2018-06-22T23:20:27.800Z,12.97
2018-06-22T23:23:07.388Z,12.88
2018-06-22T23:25:36.065Z,12.89
2018-06-22T23:28:04.710Z,12.83
2018-06-22T23:30:33.504Z,12.82
2018-06-22T23:33:02.055Z,12.79
2018-06-22T23:35:30.829Z,12.78
2018-06-22T23:37:59.501Z,12.82
2018-06-22T23:40:28.070Z,12.72
2018-06-22T23:42:56.741Z,12.69
2018-06-22T23:45:25.521Z,12.64
2018-06-22T23:47:54.269Z,12.53
2018-06-22T23:50:23.111Z,12.39
2018-06-22T23:52:52.008Z,12.39
2018-06-22T23:55:20.972Z,12.32
2018-06-22T23:57:49.950Z,12.33
